Aviation Digital Data Service (ADDS)

Output produced by METARs form (1530 UTC 21 April 2014)
found at http://www.aviationweather.gov/adds/metars/
 
METAR text: KSBP 211456Z 00000KT 10SM CLR 13/09 A3002 RMK AO2 SLP166 T01330089 51006 $
Conditions at: KSBP (SAN LUIS OBISPO , CA, US) observed 1456 UTC 21 April 2014
Temperature: 13.3°C (56°F)
Dewpoint: 8.9°C (48°F) [RH = 75%]
Pressure (altimeter): 30.02 inches Hg (1016.7 mb)
[Sea-level pressure: 1016.6 mb]
Winds: calm
Visibility: 10 or more miles (16+ km)
Ceiling: at least 12,000 feet AGL
Clouds: sky clear below 12,000 feet AGL
Weather:
SOME DATA ABOVE MAY BE INACCURATE!!!
"$" is an indication the sensor requires maintenance

METAR text: KSBP 211356Z 00000KT 10SM CLR 10/07 A3002 RMK AO2 SLP164 T01000067 $
Conditions at: KSBP (SAN LUIS OBISPO , CA, US) observed 1356 UTC 21 April 2014
Temperature: 10.0°C (50°F)
Dewpoint: 6.7°C (44°F) [RH = 80%]
Pressure (altimeter): 30.02 inches Hg (1016.7 mb)
[Sea-level pressure: 1016.4 mb]
Winds: calm
Visibility: 10 or more miles (16+ km)
Ceiling: at least 12,000 feet AGL
Clouds: sky clear below 12,000 feet AGL
Weather:
SOME DATA ABOVE MAY BE INACCURATE!!!
"$" is an indication the sensor requires maintenance

METAR text: KSBP 211256Z 00000KT 10SM CLR 09/06 A3001 RMK AO2 SLP162 T00940061 $
Conditions at: KSBP (SAN LUIS OBISPO , CA, US) observed 1256 UTC 21 April 2014
Temperature: 9.4°C (49°F)
Dewpoint: 6.1°C (43°F) [RH = 80%]
Pressure (altimeter): 30.01 inches Hg (1016.3 mb)
[Sea-level pressure: 1016.2 mb]
Winds: calm
Visibility: 10 or more miles (16+ km)
Ceiling: at least 12,000 feet AGL
Clouds: sky clear below 12,000 feet AGL
Weather:
SOME DATA ABOVE MAY BE INACCURATE!!!
"$" is an indication the sensor requires maintenance

METAR text: KSBP 211156Z AUTO 00000KT 10SM CLR 10/07 A3001 RMK AO2 SLP159 T01000067 10128 20100 58009 $
Conditions at: KSBP (SAN LUIS OBISPO , CA, US) observed 1156 UTC 21 April 2014
Temperature: 10.0°C (50°F)
Dewpoint: 6.7°C (44°F) [RH = 80%]
Pressure (altimeter): 30.01 inches Hg (1016.3 mb)
[Sea-level pressure: 1015.9 mb]
Winds: calm
Visibility: 10 or more miles (16+ km)
Ceiling: at least 12,000 feet AGL
Clouds: sky clear below 12,000 feet AGL
Weather:
SOME DATA ABOVE MAY BE INACCURATE!!!
"$" is an indication the sensor requires maintenance

METAR text: KSBP 211056Z AUTO 00000KT 9SM CLR 10/07 A3002 RMK AO2 SLP164 T01000072 $
Conditions at: KSBP (SAN LUIS OBISPO , CA, US) observed 1056 UTC 21 April 2014
Temperature: 10.0°C (50°F)
Dewpoint: 7.2°C (45°F) [RH = 83%]
Pressure (altimeter): 30.02 inches Hg (1016.7 mb)
[Sea-level pressure: 1016.4 mb]
Winds: calm
Visibility: 9 miles (14 km)
Ceiling: at least 12,000 feet AGL
Clouds: sky clear below 12,000 feet AGL
Weather:
SOME DATA ABOVE MAY BE INACCURATE!!!
"$" is an indication the sensor requires maintenance

METAR text: KSBP 210956Z AUTO 00000KT 9SM CLR 11/08 A3003 RMK AO2 SLP167 T01060078 $
Conditions at: KSBP (SAN LUIS OBISPO , CA, US) observed 0956 UTC 21 April 2014
Temperature: 10.6°C (51°F)
Dewpoint: 7.8°C (46°F) [RH = 83%]
Pressure (altimeter): 30.03 inches Hg (1017.0 mb)
[Sea-level pressure: 1016.7 mb]
Winds: calm
Visibility: 9 miles (14 km)
Ceiling: at least 12,000 feet AGL
Clouds: sky clear below 12,000 feet AGL
Weather:
SOME DATA ABOVE MAY BE INACCURATE!!!
"$" is an indication the sensor requires maintenance

METAR text: KSBP 210856Z AUTO 00000KT 7SM CLR 11/09 A3003 RMK AO2 SLP169 T01110089 58003 $
Conditions at: KSBP (SAN LUIS OBISPO , CA, US) observed 0856 UTC 21 April 2014
Temperature: 11.1°C (52°F)
Dewpoint: 8.9°C (48°F) [RH = 86%]
Pressure (altimeter): 30.03 inches Hg (1017.0 mb)
[Sea-level pressure: 1016.9 mb]
Winds: calm
Visibility: 7 miles (11 km)
Ceiling: at least 12,000 feet AGL
Clouds: sky clear below 12,000 feet AGL
Weather:
SOME DATA ABOVE MAY BE INACCURATE!!!
"$" is an indication the sensor requires maintenance

METAR text: KSBP 210756Z AUTO 00000KT 8SM CLR 12/08 A3005 RMK AO2 SLP174 T01170083 402940083
Conditions at: KSBP (SAN LUIS OBISPO , CA, US) observed 0756 UTC 21 April 2014
Temperature: 11.7°C (53°F)
Dewpoint: 8.3°C (47°F) [RH = 80%]
Pressure (altimeter): 30.05 inches Hg (1017.7 mb)
[Sea-level pressure: 1017.4 mb]
Winds: calm
Visibility: 8 miles (13 km)
Ceiling: at least 12,000 feet AGL
Clouds: sky clear below 12,000 feet AGL
Weather: automated observation with no human augmentation;
there may or may not be significant weather present at this time